createdAt,value
2023-03-07T00:01:08.889Z,-5.32
2023-03-07T00:03:35.914Z,-5.29
2023-03-07T00:06:05.168Z,-5.24
2023-03-07T00:08:33.199Z,-5.37
2023-03-07T00:11:08.156Z,-5.31
2023-03-07T00:13:37.240Z,-5.23
2023-03-07T00:16:06.893Z,-5.29
2023-03-07T00:18:34.646Z,-5.29
2023-03-07T00:21:04.207Z,-5.08
2023-03-07T00:23:31.444Z,-5.21
2023-03-07T00:26:04.748Z,-5.22
2023-03-07T00:28:32.208Z,-5.38
2023-03-07T00:31:04.100Z,-5.36
2023-03-07T00:33:31.195Z,-5.29
2023-03-07T00:36:07.020Z,-5.30
2023-03-07T00:38:34.762Z,-5.42
2023-03-07T00:41:04.328Z,-5.41
2023-03-07T00:43:32.173Z,-5.55
2023-03-07T00:45:59.545Z,-5.41
2023-03-07T00:48:27.255Z,-5.51
2023-03-07T00:50:55.584Z,-5.56
2023-03-07T00:53:25.469Z,-5.53
2023-03-07T00:56:03.064Z,-5.71
2023-03-07T00:58:33.723Z,-5.66
2023-03-07T01:01:01.850Z,-5.72
2023-03-07T01:03:49.258Z,-5.89
2023-03-07T01:06:18.588Z,-6.03
2023-03-07T01:08:46.473Z,-5.85
2023-03-07T01:11:15.512Z,-5.72
2023-03-07T01:13:42.761Z,-5.73
2023-03-07T01:16:24.857Z,-5.74
2023-03-07T01:18:55.349Z,-5.68
2023-03-07T01:21:44.602Z,-5.80
2023-03-07T01:24:15.477Z,-5.64
2023-03-07T01:26:43.141Z,-5.65
2023-03-07T01:29:12.086Z,-5.67
2023-03-07T01:31:39.538Z,-5.75
2023-03-07T01:34:06.847Z,-5.75
2023-03-07T01:36:36.757Z,-5.85
2023-03-07T01:39:09.123Z,-5.60
2023-03-07T01:41:38.906Z,-5.57
2023-03-07T01:44:23.562Z,-5.61
2023-03-07T01:46:54.819Z,-5.61
2023-03-07T01:49:34.370Z,-5.70
2023-03-07T01:52:06.641Z,-5.83
2023-03-07T01:54:39.828Z,-5.92
2023-03-07T01:57:07.105Z,-5.71
2023-03-07T01:59:44.009Z,-5.76
2023-03-07T02:02:15.495Z,-5.80
2023-03-07T02:05:06.013Z,-5.85
2023-03-07T02:07:40.647Z,-5.84
2023-03-07T02:10:10.517Z,-5.94
2023-03-07T02:12:38.456Z,-5.94
2023-03-07T02:15:06.172Z,-5.84
2023-03-07T02:17:33.305Z,-5.95
2023-03-07T02:20:07.286Z,-5.84
2023-03-07T02:22:34.351Z,-5.94
2023-03-07T02:25:13.401Z,-6.00
2023-03-07T02:27:41.356Z,-6.00
2023-03-07T02:30:09.627Z,-6.00
2023-03-07T02:32:37.500Z,-6.06
2023-03-07T02:35:22.988Z,-6.00
2023-03-07T02:37:57.372Z,-6.20
2023-03-07T02:40:27.261Z,-6.15
2023-03-07T02:42:57.032Z,-6.09
2023-03-07T02:45:24.239Z,-6.12
2023-03-07T02:47:51.142Z,-6.22
2023-03-07T02:50:19.069Z,-6.15
2023-03-07T02:52:50.240Z,-6.20
2023-03-07T02:55:17.329Z,-6.14
2023-03-07T02:57:50.904Z,-6.12
2023-03-07T03:00:18.555Z,-6.07
2023-03-07T03:02:45.628Z,-6.11
2023-03-07T03:05:13.111Z,-6.20
2023-03-07T03:07:40.002Z,-6.22
2023-03-07T03:10:07.667Z,-6.12
2023-03-07T03:12:35.039Z,-6.03
2023-03-07T03:15:03.338Z,-6.18
2023-03-07T03:17:30.221Z,-6.23
2023-03-07T03:19:57.746Z,-6.09
2023-03-07T03:22:24.641Z,-6.05
2023-03-07T03:24:51.637Z,-6.21
2023-03-07T03:27:19.980Z,-6.16
2023-03-07T03:29:49.686Z,-6.28
2023-03-07T03:32:17.461Z,-6.26
2023-03-07T03:34:45.621Z,-6.23
2023-03-07T03:37:13.001Z,-6.19
2023-03-07T03:39:40.208Z,-6.25
2023-03-07T03:42:07.449Z,-6.27
2023-03-07T03:44:38.222Z,-6.34
2023-03-07T03:47:06.441Z,-6.28
2023-03-07T03:49:33.669Z,-6.27
2023-03-07T03:52:00.736Z,-6.24
2023-03-07T03:54:27.682Z,-6.19
2023-03-07T03:56:55.127Z,-6.30
2023-03-07T03:59:22.507Z,-6.15
2023-03-07T04:01:50.555Z,-6.23
2023-03-07T04:04:19.529Z,-6.18
2023-03-07T04:06:46.528Z,-6.18
2023-03-07T04:09:13.470Z,-5.97
2023-03-07T04:11:43.330Z,-5.95
2023-03-07T04:14:10.597Z,-5.94
2023-03-07T04:16:37.695Z,-6.07
2023-03-07T04:19:04.733Z,-5.93
2023-03-07T04:21:31.764Z,-5.81
2023-03-07T04:24:00.200Z,-5.81
2023-03-07T04:26:32.946Z,-5.84
2023-03-07T04:28:59.882Z,-5.99
2023-03-07T04:31:31.330Z,-5.93
2023-03-07T04:34:00.815Z,-5.92
2023-03-07T04:36:28.217Z,-5.79
2023-03-07T04:38:55.226Z,-5.79
2023-03-07T04:41:24.625Z,-5.70
2023-03-07T04:43:55.516Z,-5.58
2023-03-07T04:46:24.221Z,-5.39
2023-03-07T04:48:51.465Z,-5.08
2023-03-07T04:51:19.215Z,-5.00
2023-03-07T04:53:47.242Z,-4.86
2023-03-07T04:56:14.355Z,-4.59
2023-03-07T04:58:42.580Z,-4.45
2023-03-07T05:01:10.758Z,-4.25
2023-03-07T05:03:37.909Z,-4.32
2023-03-07T05:06:08.378Z,-4.27
2023-03-07T05:08:35.964Z,-4.30
2023-03-07T05:11:03.542Z,-4.26
2023-03-07T05:13:31.477Z,-4.20
2023-03-07T05:15:59.818Z,-4.13
2023-03-07T05:18:28.507Z,-3.93
2023-03-07T05:20:57.273Z,-3.77
2023-03-07T05:23:24.941Z,-3.64
2023-03-07T05:25:53.484Z,-3.67
2023-03-07T05:28:20.557Z,-3.38
2023-03-07T05:30:48.254Z,-3.03
2023-03-07T05:33:15.545Z,-2.83
2023-03-07T05:35:43.379Z,-2.78
2023-03-07T05:38:12.132Z,-2.78
2023-03-07T05:40:39.655Z,-2.48
2023-03-07T05:43:07.616Z,-2.18
2023-03-07T05:45:35.392Z,-2.06
2023-03-07T05:48:02.358Z,-1.90
2023-03-07T05:50:30.338Z,-1.98
2023-03-07T05:52:57.704Z,-2.38
2023-03-07T05:55:27.578Z,-2.44
2023-03-07T05:57:54.640Z,-2.28
2023-03-07T06:00:22.388Z,-2.09
2023-03-07T06:02:55.094Z,-1.92
2023-03-07T06:05:24.251Z,-2.00
2023-03-07T06:07:52.470Z,-2.03
2023-03-07T06:10:19.415Z,-1.73
2023-03-07T06:12:50.631Z,-1.41
2023-03-07T06:15:18.257Z,-1.40
2023-03-07T06:17:46.718Z,-1.41
2023-03-07T06:20:14.199Z,-1.14
2023-03-07T06:22:41.187Z,-0.98
2023-03-07T06:25:09.423Z,-0.66
2023-03-07T06:27:37.445Z,-0.51
2023-03-07T06:30:06.986Z,-0.66
2023-03-07T06:32:34.035Z,-0.58
2023-03-07T06:35:02.908Z,-0.59
2023-03-07T06:37:30.512Z,-0.75
2023-03-07T06:39:59.608Z,-0.14
2023-03-07T06:42:27.032Z,-0.07
2023-03-07T06:44:56.649Z,-0.27
2023-03-07T06:47:28.631Z,0.34
2023-03-07T06:49:55.740Z,0.70
2023-03-07T06:52:23.608Z,0.76
2023-03-07T06:54:51.487Z,0.77
2023-03-07T06:57:18.458Z,1.10
2023-03-07T06:59:45.511Z,1.62
2023-03-07T07:02:15.226Z,2.02
2023-03-07T07:04:42.345Z,1.13
2023-03-07T07:07:09.323Z,1.19
2023-03-07T07:09:36.594Z,1.61
2023-03-07T07:12:03.820Z,2.02
2023-03-07T07:14:31.083Z,2.35
2023-03-07T07:17:00.984Z,2.58
2023-03-07T07:19:28.274Z,3.12
2023-03-07T07:21:56.329Z,3.67
2023-03-07T07:24:23.510Z,3.83
2023-03-07T07:26:51.589Z,3.92
2023-03-07T07:29:18.905Z,3.92
2023-03-07T07:31:47.915Z,3.33
2023-03-07T07:34:16.471Z,3.01
2023-03-07T07:36:43.477Z,3.33
2023-03-07T07:39:13.129Z,3.50
2023-03-07T07:41:42.746Z,3.49
2023-03-07T07:44:10.101Z,3.06
2023-03-07T07:46:44.633Z,2.83
2023-03-07T07:49:11.833Z,2.96
2023-03-07T07:51:38.803Z,3.33
2023-03-07T07:54:09.630Z,3.32
2023-03-07T07:56:36.829Z,2.96
2023-03-07T07:59:03.747Z,2.81
2023-03-07T08:01:30.835Z,2.93
2023-03-07T08:03:57.840Z,2.68
2023-03-07T08:06:27.046Z,2.23
2023-03-07T08:08:55.050Z,2.26
2023-03-07T08:11:23.410Z,2.15
2023-03-07T08:13:50.904Z,1.73
2023-03-07T08:16:21.523Z,1.80
2023-03-07T08:18:56.141Z,2.26
2023-03-07T08:21:25.292Z,2.30
2023-03-07T08:23:57.099Z,2.16
2023-03-07T08:26:24.554Z,2.50
2023-03-07T08:28:53.248Z,2.38
2023-03-07T08:31:23.021Z,2.07
2023-03-07T08:33:50.622Z,2.54
2023-03-07T08:36:18.261Z,2.78
2023-03-07T08:38:49.015Z,2.43
2023-03-07T08:41:16.013Z,2.63
2023-03-07T08:43:42.974Z,2.17
2023-03-07T08:46:09.979Z,2.39
2023-03-07T08:48:36.932Z,2.71
2023-03-07T08:51:11.373Z,2.70
2023-03-07T08:53:38.537Z,2.43
2023-03-07T08:56:07.789Z,2.16
2023-03-07T08:58:35.139Z,2.24
2023-03-07T09:01:02.698Z,2.50
2023-03-07T09:03:29.772Z,2.74
2023-03-07T09:05:56.651Z,2.97
2023-03-07T09:08:23.764Z,3.04
2023-03-07T09:10:50.752Z,2.68
2023-03-07T09:13:18.468Z,2.82
2023-03-07T09:15:45.979Z,3.15
2023-03-07T09:18:13.166Z,3.58
2023-03-07T09:20:40.321Z,3.79
2023-03-07T09:23:08.327Z,3.70
2023-03-07T09:25:36.343Z,3.86
2023-03-07T09:28:03.663Z,3.58
2023-03-07T09:30:30.505Z,3.56
2023-03-07T09:32:57.453Z,3.68
2023-03-07T09:35:24.995Z,3.41
2023-03-07T09:37:52.014Z,3.69
2023-03-07T09:40:24.358Z,3.90
2023-03-07T09:43:22.732Z,3.98
2023-03-07T09:46:25.923Z,3.68
2023-03-07T09:49:12.650Z,3.95
2023-03-07T09:51:42.284Z,3.59
2023-03-07T09:54:13.707Z,3.81
2023-03-07T09:56:49.603Z,3.58
2023-03-07T09:59:23.242Z,3.58
2023-03-07T10:02:12.820Z,3.72
2023-03-07T10:05:08.847Z,3.90
2023-03-07T10:07:36.641Z,3.48
2023-03-07T10:10:12.858Z,3.92
2023-03-07T10:13:05.450Z,3.07
2023-03-07T10:15:52.586Z,3.10
2023-03-07T10:18:47.996Z,3.02
2023-03-07T10:21:43.062Z,2.88
2023-03-07T10:24:37.621Z,3.50
2023-03-07T10:27:10.306Z,3.33
2023-03-07T10:29:48.117Z,3.75
2023-03-07T10:32:15.145Z,4.03
2023-03-07T10:34:42.048Z,3.93
2023-03-07T10:37:27.174Z,3.62
2023-03-07T10:39:57.325Z,4.13
2023-03-07T10:42:27.085Z,3.58
2023-03-07T10:44:54.119Z,3.04
2023-03-07T10:47:24.009Z,2.75
2023-03-07T10:49:56.720Z,2.70
2023-03-07T10:52:31.010Z,3.00
2023-03-07T10:55:37.101Z,3.03
2023-03-07T10:58:39.673Z,3.54
2023-03-07T11:01:06.785Z,3.28
2023-03-07T11:03:46.007Z,3.20
2023-03-07T11:06:35.059Z,3.24
2023-03-07T11:09:26.060Z,3.10
2023-03-07T11:12:13.301Z,3.47
2023-03-07T11:14:50.943Z,3.10
2023-03-07T11:17:40.659Z,3.06
2023-03-07T11:20:50.040Z,3.42
2023-03-07T11:23:17.032Z,3.29
2023-03-07T11:25:44.376Z,3.18
2023-03-07T11:28:33.030Z,3.51
2023-03-07T11:31:19.175Z,3.44
2023-03-07T11:34:26.242Z,3.12
2023-03-07T11:37:23.688Z,3.02
2023-03-07T11:40:26.730Z,3.13
2023-03-07T11:43:15.372Z,3.49
2023-03-07T11:45:50.884Z,3.27
2023-03-07T11:48:42.328Z,3.26
2023-03-07T11:51:31.810Z,2.99
2023-03-07T11:54:40.715Z,3.53
2023-03-07T11:57:42.298Z,3.64
2023-03-07T12:00:16.145Z,3.49
2023-03-07T12:03:18.961Z,3.57
2023-03-07T12:05:52.068Z,3.06
2023-03-07T12:08:37.711Z,3.18
2023-03-07T12:11:16.827Z,3.10
2023-03-07T12:13:51.060Z,2.97
2023-03-07T12:16:40.494Z,3.15
2023-03-07T12:19:33.272Z,3.04
2023-03-07T12:22:21.668Z,2.85
2023-03-07T12:25:01.741Z,2.63
2023-03-07T12:27:34.591Z,2.94
2023-03-07T12:30:07.265Z,2.77
2023-03-07T12:32:36.226Z,2.79
2023-03-07T12:35:22.647Z,3.03
2023-03-07T12:37:52.735Z,2.92
2023-03-07T12:40:32.971Z,3.16
2023-03-07T12:43:22.404Z,2.82
2023-03-07T12:45:57.848Z,2.46
2023-03-07T12:48:33.530Z,2.28
2023-03-07T12:51:11.482Z,2.31
2023-03-07T12:53:49.751Z,1.89
2023-03-07T12:56:59.681Z,1.94
2023-03-07T12:59:27.815Z,2.12
2023-03-07T13:02:12.897Z,2.10
2023-03-07T13:04:41.750Z,2.05
2023-03-07T13:07:17.783Z,2.05
2023-03-07T13:09:47.594Z,2.14
2023-03-07T13:12:14.485Z,2.45
2023-03-07T13:14:59.985Z,2.35
2023-03-07T13:17:27.005Z,2.53
2023-03-07T13:19:55.743Z,2.57
2023-03-07T13:22:22.734Z,2.46
2023-03-07T13:24:57.411Z,2.42
2023-03-07T13:27:45.264Z,2.31
2023-03-07T13:30:12.347Z,2.36
2023-03-07T13:32:48.696Z,2.40
2023-03-07T13:35:28.061Z,2.41
2023-03-07T13:38:33.990Z,2.39
2023-03-07T13:41:02.187Z,2.22
2023-03-07T13:43:29.249Z,2.13
2023-03-07T13:46:25.543Z,2.00
2023-03-07T13:48:52.610Z,2.05
2023-03-07T13:51:20.088Z,1.79
2023-03-07T13:54:02.845Z,1.74
2023-03-07T13:56:36.542Z,1.53
2023-03-07T13:59:11.470Z,1.59
2023-03-07T14:01:58.826Z,1.44
2023-03-07T14:04:41.279Z,1.25
2023-03-07T14:07:28.123Z,1.28
2023-03-07T14:10:12.741Z,1.23
2023-03-07T14:13:05.169Z,0.90
2023-03-07T14:16:00.035Z,1.13
2023-03-07T14:18:44.965Z,0.91
2023-03-07T14:21:33.869Z,0.77
2023-03-07T14:24:30.110Z,0.66
2023-03-07T14:26:58.912Z,0.69
2023-03-07T14:29:28.266Z,0.65
2023-03-07T14:31:58.071Z,0.48
2023-03-07T14:34:35.217Z,0.69
2023-03-07T14:37:17.320Z,0.77
2023-03-07T14:39:59.357Z,0.52
2023-03-07T14:42:46.467Z,0.53
2023-03-07T14:45:43.617Z,0.33
2023-03-07T14:49:11.142Z,0.44
2023-03-07T14:51:44.743Z,0.36
2023-03-07T14:54:17.117Z,0.21
2023-03-07T14:56:44.842Z,0.25
2023-03-07T14:59:28.046Z,0.33
2023-03-07T15:01:57.199Z,0.18
2023-03-07T15:04:28.525Z,0.16
2023-03-07T15:07:01.418Z,0.14
2023-03-07T15:09:29.054Z,0.27
2023-03-07T15:12:10.162Z,0.16
2023-03-07T15:14:49.569Z,0.22
2023-03-07T15:17:40.441Z,0.16
2023-03-07T15:20:18.752Z,0.30
2023-03-07T15:22:47.456Z,0.23
2023-03-07T15:25:25.345Z,0.19
2023-03-07T15:28:02.194Z,0.17
2023-03-07T15:30:38.645Z,0.15
2023-03-07T15:33:20.808Z,0.00
2023-03-07T15:36:12.971Z,0.27
2023-03-07T15:38:51.328Z,0.08
2023-03-07T15:41:36.443Z,0.02
2023-03-07T15:44:23.737Z,0.01
2023-03-07T15:46:53.481Z,-0.03
2023-03-07T15:49:34.521Z,-0.06
2023-03-07T15:52:01.761Z,-0.01
2023-03-07T15:54:40.930Z,-0.02
2023-03-07T15:57:21.770Z,-0.08
2023-03-07T16:00:04.712Z,-0.09
2023-03-07T16:02:31.838Z,-0.09
2023-03-07T16:05:00.621Z,0.05
2023-03-07T16:07:28.369Z,-0.07
2023-03-07T16:09:55.400Z,0.05
2023-03-07T16:12:24.786Z,0.06
2023-03-07T16:14:54.980Z,-0.08
2023-03-07T16:17:36.131Z,-0.04
2023-03-07T16:20:04.481Z,-0.06
2023-03-07T16:22:32.156Z,-0.14
2023-03-07T16:24:59.377Z,0.00
2023-03-07T16:27:26.637Z,-0.20
2023-03-07T16:29:54.078Z,0.02
2023-03-07T16:32:22.860Z,0.01
2023-03-07T16:34:50.784Z,0.08
2023-03-07T16:37:18.161Z,-0.07
2023-03-07T16:39:45.292Z,-0.03
2023-03-07T16:42:23.063Z,0.12
2023-03-07T16:44:51.890Z,0.14
2023-03-07T16:47:19.040Z,-0.02
2023-03-07T16:49:46.113Z,0.04
2023-03-07T16:52:14.094Z,0.06
2023-03-07T16:54:41.233Z,0.18
2023-03-07T16:57:15.144Z,0.15
2023-03-07T16:59:45.750Z,0.09
2023-03-07T17:02:18.549Z,0.19
2023-03-07T17:04:47.058Z,0.19
2023-03-07T17:07:24.370Z,0.30
2023-03-07T17:09:51.550Z,0.35
2023-03-07T17:12:22.741Z,0.38
2023-03-07T17:14:50.479Z,0.44
2023-03-07T17:17:22.561Z,0.14
2023-03-07T17:19:49.670Z,-0.06
2023-03-07T17:22:17.825Z,0.03
2023-03-07T17:24:46.988Z,0.24
2023-03-07T17:27:13.966Z,0.20
2023-03-07T17:29:47.801Z,0.29
2023-03-07T17:32:15.090Z,0.12
2023-03-07T17:34:42.657Z,0.13
2023-03-07T17:37:12.506Z,0.05
2023-03-07T17:39:43.030Z,0.12
2023-03-07T17:42:10.497Z,0.34
2023-03-07T17:44:38.340Z,0.34
2023-03-07T17:47:05.912Z,0.29
2023-03-07T17:49:38.401Z,0.32
2023-03-07T17:52:07.743Z,0.25
2023-03-07T17:54:35.687Z,0.10
2023-03-07T17:57:03.895Z,0.25
2023-03-07T17:59:32.790Z,0.32
2023-03-07T18:02:00.492Z,0.44
2023-03-07T18:04:27.652Z,0.25
2023-03-07T18:06:54.681Z,0.45
2023-03-07T18:09:21.638Z,0.34
2023-03-07T18:11:49.384Z,0.27
2023-03-07T18:14:16.437Z,0.47
2023-03-07T18:16:43.470Z,0.39
2023-03-07T18:19:23.979Z,0.43
2023-03-07T18:21:52.999Z,0.41
2023-03-07T18:24:23.229Z,0.25
2023-03-07T18:26:50.389Z,0.38
2023-03-07T18:29:21.170Z,0.27
2023-03-07T18:31:48.375Z,0.36
2023-03-07T18:34:15.978Z,0.38
2023-03-07T18:36:44.015Z,0.36
2023-03-07T18:39:11.823Z,0.40
2023-03-07T18:41:40.423Z,0.28
2023-03-07T18:44:17.188Z,0.24
2023-03-07T18:46:45.037Z,0.15
2023-03-07T18:49:12.511Z,0.23
2023-03-07T18:51:40.022Z,0.14
2023-03-07T18:54:06.938Z,0.16
2023-03-07T18:56:33.896Z,-0.00
2023-03-07T18:59:00.871Z,0.09
2023-03-07T19:01:37.187Z,0.14
2023-03-07T19:04:04.918Z,0.22
2023-03-07T19:06:42.813Z,0.25
2023-03-07T19:09:16.104Z,0.10
2023-03-07T19:11:43.167Z,0.04
2023-03-07T19:14:10.305Z,-0.03
2023-03-07T19:16:37.717Z,0.07
2023-03-07T19:19:04.919Z,0.10
2023-03-07T19:21:32.257Z,0.13
2023-03-07T19:24:01.249Z,0.14
2023-03-07T19:26:28.336Z,-0.01
2023-03-07T19:28:56.795Z,0.05
2023-03-07T19:31:28.180Z,0.05
2023-03-07T19:33:56.355Z,0.01
2023-03-07T19:36:28.460Z,0.05
2023-03-07T19:38:57.343Z,0.03
2023-03-07T19:41:26.783Z,0.03
2023-03-07T19:43:55.767Z,0.12
2023-03-07T19:46:23.012Z,0.06
2023-03-07T19:48:50.066Z,0.07
2023-03-07T19:51:19.225Z,0.16
2023-03-07T19:53:47.450Z,0.32
2023-03-07T19:56:17.447Z,0.34
2023-03-07T19:58:44.893Z,0.37
2023-03-07T20:01:14.516Z,0.34
2023-03-07T20:03:41.653Z,0.15
2023-03-07T20:06:11.897Z,0.17
2023-03-07T20:08:38.797Z,0.17
2023-03-07T20:11:12.814Z,0.29
2023-03-07T20:13:41.267Z,0.15
2023-03-07T20:16:10.479Z,0.24
2023-03-07T20:18:38.761Z,0.23
2023-03-07T20:21:14.104Z,0.26
2023-03-07T20:23:44.384Z,0.26
2023-03-07T20:26:16.999Z,0.33
2023-03-07T20:28:44.920Z,0.12
2023-03-07T20:31:12.942Z,0.36
2023-03-07T20:33:42.396Z,0.35
2023-03-07T20:36:24.196Z,0.32
2023-03-07T20:38:53.946Z,0.25
2023-03-07T20:41:23.784Z,0.26
2023-03-07T20:43:52.253Z,0.30
2023-03-07T20:46:21.299Z,0.48
2023-03-07T20:48:49.126Z,0.29
2023-03-07T20:51:18.904Z,0.33
2023-03-07T20:53:52.277Z,0.31
2023-03-07T20:56:19.915Z,0.25
2023-03-07T20:58:47.520Z,0.35
2023-03-07T21:01:19.247Z,0.28
2023-03-07T21:03:47.187Z,0.40
2023-03-07T21:06:15.533Z,0.47
2023-03-07T21:08:43.182Z,0.49
2023-03-07T21:11:12.315Z,0.63
2023-03-07T21:16:14.722Z,0.70
2023-03-07T21:18:42.551Z,0.54
2023-03-07T21:21:12.830Z,0.50
2023-03-07T21:23:40.291Z,0.53
2023-03-07T21:26:10.100Z,0.52
2023-03-07T21:28:40.677Z,0.61
2023-03-07T21:31:17.167Z,0.36
2023-03-07T21:33:55.676Z,0.54
2023-03-07T21:36:24.358Z,0.60
2023-03-07T21:38:51.186Z,0.56
2023-03-07T21:41:18.404Z,0.49
2023-03-07T21:43:46.069Z,0.38
2023-03-07T21:46:14.678Z,0.57
2023-03-07T21:48:42.275Z,0.54
2023-03-07T21:51:10.505Z,0.52
2023-03-07T21:53:37.856Z,0.69
2023-03-07T21:56:08.011Z,0.72
2023-03-07T21:58:36.026Z,0.77
2023-03-07T22:01:14.339Z,0.67
2023-03-07T22:03:41.813Z,0.79
2023-03-07T22:06:11.515Z,0.72
2023-03-07T22:08:39.139Z,0.79
2023-03-07T22:11:07.591Z,0.65
2023-03-07T22:13:36.726Z,0.81
2023-03-07T22:16:07.272Z,1.01
2023-03-07T22:18:35.201Z,0.78
2023-03-07T22:21:10.056Z,0.91
2023-03-07T22:23:37.475Z,0.97
2023-03-07T22:26:09.239Z,1.06
2023-03-07T22:28:36.231Z,1.10
2023-03-07T22:31:05.307Z,1.15
2023-03-07T22:33:33.164Z,1.11
2023-03-07T22:36:02.851Z,1.17
2023-03-07T22:38:30.407Z,1.24
2023-03-07T22:41:05.763Z,1.30
2023-03-07T22:43:34.593Z,1.16
2023-03-07T22:46:02.224Z,1.07
2023-03-07T22:48:29.819Z,1.01
2023-03-07T22:50:57.346Z,1.03
2023-03-07T22:53:27.100Z,1.01
2023-03-07T22:55:54.329Z,0.93
2023-03-07T22:58:21.516Z,1.00
2023-03-07T23:00:48.760Z,1.19
2023-03-07T23:03:15.753Z,1.27
2023-03-07T23:05:42.787Z,1.32
2023-03-07T23:08:10.092Z,1.41
2023-03-07T23:10:37.002Z,1.41
2023-03-07T23:13:03.919Z,1.49
2023-03-07T23:15:31.416Z,1.39
2023-03-07T23:17:58.445Z,1.50
2023-03-07T23:20:25.351Z,1.56
2023-03-07T23:22:53.474Z,1.65
2023-03-07T23:25:21.021Z,1.64
2023-03-07T23:27:48.098Z,1.33
2023-03-07T23:30:17.929Z,1.08
2023-03-07T23:32:45.037Z,1.20
2023-03-07T23:35:12.002Z,1.25
2023-03-07T23:37:39.264Z,1.14
2023-03-07T23:40:06.896Z,1.22
2023-03-07T23:42:33.987Z,1.27
2023-03-07T23:45:00.837Z,1.24
2023-03-07T23:47:27.741Z,1.23
2023-03-07T23:49:54.613Z,1.28
2023-03-07T23:52:21.532Z,1.22
2023-03-07T23:54:48.547Z,1.23
2023-03-07T23:57:15.484Z,1.31
2023-03-07T23:59:42.383Z,1.23
